Time;durP1;ratioP1;P1;durP2;ratioP2;P2;SDS_P1;SDS_P2;PMS_P1;PMS_P2;Temp;Humidity;BMP_temperature;BMP_pressure;BME280_temperature;BME280_humidity;BME280_pressure;Samples;Min_cycle;Max_cycle;Signal;HPM_P1;HPM_P2
2024/01/12 00:01:05;;;;;;;7.95;2.60;;;;;;;;;;5074839;28;20055;-68
2024/01/12 00:03:30;;;;;;;4.53;1.42;;;;;;;;;;5076442;28;20400;-68
2024/01/12 00:05:56;;;;;;;3.28;1.50;;;;;;;;;;5072506;28;20028;-67
2024/01/12 00:08:22;;;;;;;3.88;1.23;;;;;;;;;;5079515;28;20109;-67
2024/01/12 00:10:47;;;;;;;6.20;1.70;;;;;;;;;;5075471;28;20036;-67
2024/01/12 00:13:12;;;;;;;3.65;1.67;;;;;;;;;;5069673;28;20029;-67
2024/01/12 00:15:38;;;;;;;5.18;1.17;;;;;;;;;;5072544;28;20136;-67
2024/01/12 00:18:03;;;;;;;7.15;1.58;;;;;;;;;;5073330;28;20044;-67
2024/01/12 00:20:29;;;;;;;4.80;2.20;;;;;;;;;;5056023;28;20621;-67
2024/01/12 00:22:56;;;;;;;1.77;1.13;;;;;;;;;;5080810;28;20032;-67
2024/01/12 00:25:22;;;;;;;5.63;2.10;;;;;;;;;;5080736;28;20040;-68
2024/01/12 00:27:47;;;;;;;5.63;2.20;;;;;;;;;;5078745;28;20024;-67
2024/01/12 00:30:13;;;;;;;4.80;1.63;;;;;;;;;;5054717;28;20040;-67
2024/01/12 00:32:39;;;;;;;3.58;1.60;;;;;;;;;;5070544;28;20032;-67
2024/01/12 00:35:04;;;;;;;3.72;1.50;;;;;;;;;;5074118;28;20051;-67
2024/01/12 00:37:30;;;;;;;9.90;2.05;;;;;;;;;;5089765;28;20295;-67
2024/01/12 00:39:55;;;;;;;5.50;1.60;;;;;;;;;;5064021;28;20077;-68
2024/01/12 00:42:20;;;;;;;4.28;1.58;;;;;;;;;;5080483;28;20036;-68
2024/01/12 00:44:46;;;;;;;2.53;1.38;;;;;;;;;;5077802;28;20044;-68
2024/01/12 00:47:11;;;;;;;5.68;1.50;;;;;;;;;;5076314;28;20045;-68
2024/01/12 00:49:36;;;;;;;4.20;1.60;;;;;;;;;;5055021;28;20119;-67
2024/01/12 00:52:02;;;;;;;5.10;1.70;;;;;;;;;;5082369;28;20064;-67
2024/01/12 00:54:27;;;;;;;3.42;1.42;;;;;;;;;;5083856;28;20047;-67
2024/01/12 00:56:53;;;;;;;2.70;1.10;;;;;;;;;;5084325;28;20040;-67
2024/01/12 00:59:19;;;;;;;5.25;1.55;;;;;;;;;;5081666;28;20051;-67
2024/01/12 01:01:45;;;;;;;4.93;1.65;;;;;;;;;;5076702;28;20040;-67
2024/01/12 01:04:10;;;;;;;2.50;1.40;;;;;;;;;;5078267;28;20108;-68
2024/01/12 01:06:35;;;;;;;3.65;1.85;;;;;;;;;;5075917;28;20186;-67
2024/01/12 01:09:01;;;;;;;1.98;0.95;;;;;;;;;;5063059;28;20036;-67
2024/01/12 01:11:26;;;;;;;3.72;1.52;;;;;;;;;;5076535;28;20220;-68
2024/01/12 01:13:51;;;;;;;3.72;1.83;;;;;;;;;;5074686;28;20394;-68
2024/01/12 01:16:17;;;;;;;10.70;2.13;;;;;;;;;;5079889;28;20127;-67
2024/01/12 01:18:43;;;;;;;5.60;1.60;;;;;;;;;;5078092;28;20082;-68
2024/01/12 01:21:08;;;;;;;3.30;1.58;;;;;;;;;;5060036;28;20040;-68
2024/01/12 01:23:33;;;;;;;5.07;1.42;;;;;;;;;;5084466;28;20071;-67
2024/01/12 01:25:59;;;;;;;4.68;1.27;;;;;;;;;;5076064;28;20039;-68
2024/01/12 01:28:24;;;;;;;6.55;2.25;;;;;;;;;;5080967;28;20047;-67
2024/01/12 01:30:50;;;;;;;3.40;1.57;;;;;;;;;;5076631;28;20475;-67
2024/01/12 01:33:15;;;;;;;6.25;1.50;;;;;;;;;;5087969;28;20115;-67
2024/01/12 01:35:40;;;;;;;4.78;1.38;;;;;;;;;;5079513;28;20043;-67
2024/01/12 01:38:06;;;;;;;6.55;1.80;;;;;;;;;;5084008;28;20038;-68
2024/01/12 01:40:31;;;;;;;4.07;1.40;;;;;;;;;;5063811;28;20044;-67
2024/01/12 01:43:05;;;;;;;9.25;2.22;;;;;;;;;;5090012;28;20068;-67
2024/01/12 01:45:33;;;;;;;4.18;1.70;;;;;;;;;;5087246;28;20102;-67
2024/01/12 01:47:59;;;;;;;5.65;1.55;;;;;;;;;;5055359;28;20032;-67
2024/01/12 01:50:24;;;;;;;8.18;2.20;;;;;;;;;;5078096;28;20040;-68
2024/01/12 01:52:50;;;;;;;5.85;2.97;;;;;;;;;;5087600;28;20053;-67
2024/01/12 01:55:15;;;;;;;3.90;2.35;;;;;;;;;;5079631;28;20097;-67
2024/01/12 01:57:42;;;;;;;9.60;2.67;;;;;;;;;;5065283;28;20415;-67
2024/01/12 02:00:11;;;;;;;8.70;2.22;;;;;;;;;;5067072;28;20040;-68
2024/01/12 02:02:38;;;;;;;12.65;3.45;;;;;;;;;;5065645;28;20051;-68
2024/01/12 02:05:05;;;;;;;10.15;2.67;;;;;;;;;;5075823;28;20507;-67
2024/01/12 02:07:31;;;;;;;4.55;2.78;;;;;;;;;;5058699;28;20031;-67
2024/01/12 02:09:57;;;;;;;8.48;3.08;;;;;;;;;;5054465;28;20077;-68
2024/01/12 02:12:22;;;;;;;10.13;3.17;;;;;;;;;;5087282;28;20396;-67
2024/01/12 02:14:48;;;;;;;10.70;3.13;;;;;;;;;;5081060;28;20035;-67
2024/01/12 02:17:13;;;;;;;5.72;3.40;;;;;;;;;;5059148;28;20044;-68
2024/01/12 02:19:39;;;;;;;5.78;2.92;;;;;;;;;;5057265;28;20032;-67
2024/01/12 02:22:04;;;;;;;9.25;3.20;;;;;;;;;;5086979;28;20034;-68
2024/01/12 02:24:29;;;;;;;2.90;1.48;;;;;;;;;;5083113;28;20043;-67
2024/01/12 02:26:55;;;;;;;10.13;3.42;;;;;;;;;;5075538;28;20114;-67
2024/01/12 02:29:20;;;;;;;4.80;3.35;;;;;;;;;;5074159;28;20052;-67
2024/01/12 02:31:46;;;;;;;7.15;2.72;;;;;;;;;;5075861;28;20047;-67
2024/01/12 02:34:13;;;;;;;8.30;3.08;;;;;;;;;;5084956;28;20044;-68
2024/01/12 02:36:38;;;;;;;9.90;3.08;;;;;;;;;;5084617;28;20539;-67
2024/01/12 02:39:05;;;;;;;9.15;2.75;;;;;;;;;;5057880;28;20116;-68
2024/01/12 02:41:30;;;;;;;3.33;1.95;;;;;;;;;;5087903;28;20407;-67
2024/01/12 02:43:55;;;;;;;11.02;3.30;;;;;;;;;;5087397;28;20040;-68
2024/01/12 02:46:21;;;;;;;9.20;3.00;;;;;;;;;;5087668;28;20523;-67
2024/01/12 02:48:46;;;;;;;6.93;3.13;;;;;;;;;;5080495;28;20079;-68
2024/01/12 02:51:11;;;;;;;4.75;2.60;;;;;;;;;;5073500;28;20036;-67
2024/01/12 02:53:37;;;;;;;7.32;3.47;;;;;;;;;;5080024;28;20044;-68
2024/01/12 02:56:03;;;;;;;6.40;3.38;;;;;;;;;;5077720;28;20090;-67
2024/01/12 02:58:28;;;;;;;4.80;2.63;;;;;;;;;;5073256;28;20403;-67
2024/01/12 03:00:53;;;;;;;8.02;3.20;;;;;;;;;;5071570;28;20044;-67
2024/01/12 03:03:19;;;;;;;7.18;2.55;;;;;;;;;;5070523;28;20044;-68
2024/01/12 03:05:45;;;;;;;6.68;2.92;;;;;;;;;;5067665;28;20037;-67
2024/01/12 03:08:11;;;;;;;6.03;3.03;;;;;;;;;;5073221;28;20044;-68
2024/01/12 03:10:36;;;;;;;6.45;3.20;;;;;;;;;;5082683;28;20040;-67
2024/01/12 03:13:02;;;;;;;5.70;2.78;;;;;;;;;;5076999;28;20096;-67
2024/01/12 03:15:27;;;;;;;8.85;3.25;;;;;;;;;;5077696;28;20071;-67
2024/01/12 03:17:53;;;;;;;4.25;2.47;;;;;;;;;;5075841;28;20040;-68
2024/01/12 03:20:18;;;;;;;6.80;2.63;;;;;;;;;;5070598;28;20048;-67
2024/01/12 03:22:43;;;;;;;10.32;3.28;;;;;;;;;;5075337;28;20043;-67
2024/01/12 03:25:09;;;;;;;7.18;2.75;;;;;;;;;;5078328;28;20040;-67
2024/01/12 03:27:34;;;;;;;7.07;2.78;;;;;;;;;;5077274;28;20032;-68
2024/01/12 03:29:59;;;;;;;5.47;2.45;;;;;;;;;;5061623;28;20054;-67
2024/01/12 03:32:25;;;;;;;9.73;2.78;;;;;;;;;;5078287;28;20119;-67
2024/01/12 03:34:50;;;;;;;6.30;3.03;;;;;;;;;;5073337;28;20070;-67
2024/01/12 03:37:15;;;;;;;5.68;2.53;;;;;;;;;;5079733;28;20534;-67
2024/01/12 03:39:41;;;;;;;5.18;2.38;;;;;;;;;;5073455;28;20036;-67
2024/01/12 03:42:06;;;;;;;4.13;2.30;;;;;;;;;;5062168;28;20032;-67
2024/01/12 03:44:32;;;;;;;3.10;1.85;;;;;;;;;;5063591;28;20043;-68
2024/01/12 03:46:57;;;;;;;3.92;2.47;;;;;;;;;;5079192;28;20041;-68
2024/01/12 03:49:22;;;;;;;5.95;2.50;;;;;;;;;;5069946;28;20453;-68
2024/01/12 03:51:53;;;;;;;8.88;1.98;;;;;;;;;;5078163;28;20391;-68
2024/01/12 03:54:21;;;;;;;5.32;2.75;;;;;;;;;;5070810;28;20399;-67
2024/01/12 03:56:46;;;;;;;10.73;2.80;;;;;;;;;;5075240;28;20442;-68
2024/01/12 03:59:12;;;;;;;7.07;2.80;;;;;;;;;;5078701;28;20051;-68
2024/01/12 04:01:42;;;;;;;11.87;3.30;;;;;;;;;;5084425;28;20044;-67
2024/01/12 04:04:07;;;;;;;5.15;2.72;;;;;;;;;;5073299;28;20231;-67
2024/01/12 04:06:32;;;;;;;5.72;3.05;;;;;;;;;;5076086;28;20043;-68
2024/01/12 04:08:58;;;;;;;5.18;2.95;;;;;;;;;;5077055;28;20032;-67
2024/01/12 04:11:24;;;;;;;7.22;3.25;;;;;;;;;;5077285;28;20040;-67
2024/01/12 04:13:49;;;;;;;13.57;3.83;;;;;;;;;;5078927;28;20123;-67
2024/01/12 04:16:15;;;;;;;9.10;3.25;;;;;;;;;;5080115;28;20042;-67
2024/01/12 04:18:41;;;;;;;10.05;3.50;;;;;;;;;;5080204;28;20059;-67
2024/01/12 04:21:06;;;;;;;5.68;3.05;;;;;;;;;;5078321;28;20040;-69
2024/01/12 04:23:32;;;;;;;11.95;3.30;;;;;;;;;;5087061;28;20096;-67
2024/01/12 04:25:57;;;;;;;11.48;3.47;;;;;;;;;;5077789;28;20113;-67
2024/01/12 04:28:22;;;;;;;8.75;3.13;;;;;;;;;;5075104;28;20116;-68
2024/01/12 04:30:47;;;;;;;7.82;3.35;;;;;;;;;;5074061;28;20071;-67
2024/01/12 04:33:13;;;;;;;10.25;3.45;;;;;;;;;;5075319;28;20032;-67
2024/01/12 04:35:38;;;;;;;6.05;3.08;;;;;;;;;;5087190;28;20047;-68
2024/01/12 04:38:03;;;;;;;6.72;2.90;;;;;;;;;;5080186;28;20040;-67
2024/01/12 04:40:29;;;;;;;6.70;3.35;;;;;;;;;;5087822;28;19912;-68
2024/01/12 04:42:54;;;;;;;10.48;3.28;;;;;;;;;;5077731;28;20028;-67
2024/01/12 04:45:19;;;;;;;7.35;3.00;;;;;;;;;;5076083;28;20051;-67
2024/01/12 04:47:45;;;;;;;8.35;3.30;;;;;;;;;;5085277;28;20028;-67
2024/01/12 04:50:10;;;;;;;3.47;1.57;;;;;;;;;;5081557;28;20066;-67
2024/01/12 04:52:35;;;;;;;10.70;2.95;;;;;;;;;;5084577;28;20076;-67
2024/01/12 04:55:01;;;;;;;7.97;2.75;;;;;;;;;;5074411;28;20431;-67
2024/01/12 04:57:26;;;;;;;6.00;2.90;;;;;;;;;;5076783;28;20044;-67
2024/01/12 04:59:51;;;;;;;6.65;2.45;;;;;;;;;;5087893;28;20093;-69
2024/01/12 05:02:17;;;;;;;12.38;3.25;;;;;;;;;;5080747;28;20487;-68
2024/01/12 05:04:42;;;;;;;8.18;3.15;;;;;;;;;;5081047;28;20098;-68
2024/01/12 05:07:08;;;;;;;3.95;2.38;;;;;;;;;;5080420;28;20116;-68
2024/01/12 05:09:33;;;;;;;9.10;2.90;;;;;;;;;;5078383;28;20086;-67
2024/01/12 05:12:03;;;;;;;13.90;3.10;;;;;;;;;;5077417;28;20036;-67
2024/01/12 05:14:28;;;;;;;7.90;2.63;;;;;;;;;;5073943;28;20033;-67
2024/01/12 05:16:53;;;;;;;7.60;2.83;;;;;;;;;;5077126;28;20443;-68
2024/01/12 05:19:19;;;;;;;6.15;2.92;;;;;;;;;;5073362;28;20535;-67
2024/01/12 05:21:44;;;;;;;9.55;2.75;;;;;;;;;;5083098;28;20090;-67
2024/01/12 05:24:10;;;;;;;5.05;2.42;;;;;;;;;;5080504;28;20056;-67
2024/01/12 05:26:36;;;;;;;10.60;3.28;;;;;;;;;;5072714;28;20112;-67
2024/01/12 05:29:02;;;;;;;4.95;2.55;;;;;;;;;;5077666;28;20043;-67
2024/01/12 05:31:27;;;;;;;7.93;2.20;;;;;;;;;;5060240;28;20036;-67
2024/01/12 05:33:52;;;;;;;4.43;1.70;;;;;;;;;;5077650;28;20036;-68
2024/01/12 05:36:17;;;;;;;15.50;2.25;;;;;;;;;;5072751;28;20072;-67
2024/01/12 05:38:43;;;;;;;10.73;2.85;;;;;;;;;;5075510;28;20060;-68
2024/01/12 05:41:08;;;;;;;9.90;2.15;;;;;;;;;;5080443;28;20120;-68
2024/01/12 05:43:33;;;;;;;6.75;1.92;;;;;;;;;;5078856;28;20040;-68
2024/01/12 05:45:59;;;;;;;8.30;1.75;;;;;;;;;;5073532;28;20024;-67
2024/01/12 05:48:24;;;;;;;6.75;2.33;;;;;;;;;;5080701;28;20438;-68
2024/01/12 05:50:49;;;;;;;10.80;2.50;;;;;;;;;;5063644;28;20500;-67
2024/01/12 05:53:16;;;;;;;9.57;2.00;;;;;;;;;;5079931;28;20451;-67
2024/01/12 05:55:42;;;;;;;6.43;1.77;;;;;;;;;;5055339;28;20163;-67
2024/01/12 05:58:07;;;;;;;16.13;2.40;;;;;;;;;;5076908;28;20072;-67
2024/01/12 06:00:32;;;;;;;7.82;2.45;;;;;;;;;;5082178;28;20090;-68
2024/01/12 06:02:58;;;;;;;6.93;1.87;;;;;;;;;;5081841;28;20126;-67
2024/01/12 06:05:23;;;;;;;7.53;2.00;;;;;;;;;;5078080;28;20055;-67
2024/01/12 06:07:48;;;;;;;4.43;1.50;;;;;;;;;;5080116;28;20045;-67
2024/01/12 06:10:14;;;;;;;11.35;2.20;;;;;;;;;;5080096;28;20032;-67
2024/01/12 06:12:39;;;;;;;12.35;3.45;;;;;;;;;;5075176;28;20368;-68
2024/01/12 06:15:05;;;;;;;5.43;2.05;;;;;;;;;;5073991;28;20041;-67
2024/01/12 06:17:31;;;;;;;13.75;2.00;;;;;;;;;;5076164;28;20040;-67
2024/01/12 06:19:56;;;;;;;8.23;1.77;;;;;;;;;;5072621;28;20491;-67
2024/01/12 06:22:22;;;;;;;5.95;1.60;;;;;;;;;;5080820;28;20059;-69
2024/01/12 06:24:47;;;;;;;8.73;1.63;;;;;;;;;;5078351;28;20449;-67
2024/01/12 06:27:12;;;;;;;6.45;1.90;;;;;;;;;;5081082;28;20419;-67
2024/01/12 06:29:37;;;;;;;5.47;1.85;;;;;;;;;;5079118;28;20029;-67
2024/01/12 06:32:03;;;;;;;6.93;2.03;;;;;;;;;;5083273;28;20464;-67
2024/01/12 06:34:29;;;;;;;9.15;2.38;;;;;;;;;;5078461;28;20123;-67
2024/01/12 06:36:56;;;;;;;7.93;1.75;;;;;;;;;;5075695;28;20110;-67
2024/01/12 06:39:22;;;;;;;7.93;1.27;;;;;;;;;;5073729;28;20125;-68
2024/01/12 06:41:47;;;;;;;2.47;1.05;;;;;;;;;;5076487;28;20053;-67
2024/01/12 06:44:13;;;;;;;15.80;2.20;;;;;;;;;;5080318;28;20071;-67
2024/01/12 06:46:42;;;;;;;5.40;1.55;;;;;;;;;;5087579;28;20044;-68
2024/01/12 06:49:08;;;;;;;11.80;1.88;;;;;;;;;;5081590;28;20150;-67
2024/01/12 06:51:33;;;;;;;9.95;2.17;;;;;;;;;;5087201;28;20066;-67
2024/01/12 06:53:59;;;;;;;13.07;1.95;;;;;;;;;;5083741;28;20040;-66
2024/01/12 06:56:25;;;;;;;6.65;2.08;;;;;;;;;;5089151;28;20044;-67
2024/01/12 06:58:50;;;;;;;4.28;1.35;;;;;;;;;;5077733;28;20032;-68
2024/01/12 07:01:19;;;;;;;6.53;2.50;;;;;;;;;;5078563;28;20032;-68
2024/01/12 07:03:45;;;;;;;7.72;1.75;;;;;;;;;;5083235;28;20043;-67
2024/01/12 07:06:10;;;;;;;7.28;2.00;;;;;;;;;;5077641;28;20035;-68
2024/01/12 07:08:36;;;;;;;8.25;1.92;;;;;;;;;;5080853;28;20036;-67
2024/01/12 07:11:05;;;;;;;4.20;1.45;;;;;;;;;;5079101;28;20396;-67
2024/01/12 07:13:30;;;;;;;5.70;1.50;;;;;;;;;;5066512;28;20060;-67
2024/01/12 07:15:56;;;;;;;5.38;1.58;;;;;;;;;;5079393;28;20085;-68
2024/01/12 07:18:21;;;;;;;10.90;1.80;;;;;;;;;;5076591;28;20031;-67
2024/01/12 07:20:46;;;;;;;12.80;2.40;;;;;;;;;;5070469;28;20040;-68
2024/01/12 07:23:12;;;;;;;10.55;1.77;;;;;;;;;;5070852;28;20065;-68
2024/01/12 07:25:38;;;;;;;8.25;1.75;;;;;;;;;;5070303;28;20068;-67
2024/01/12 07:28:05;;;;;;;5.32;1.80;;;;;;;;;;5070893;28;20072;-67
2024/01/12 07:30:31;;;;;;;11.35;1.40;;;;;;;;;;5070127;28;20153;-67
2024/01/12 07:32:56;;;;;;;13.88;2.28;;;;;;;;;;5083310;28;20507;-67
2024/01/12 07:35:21;;;;;;;5.88;2.00;;;;;;;;;;5071070;28;20044;-67
2024/01/12 07:37:47;;;;;;;10.35;1.88;;;;;;;;;;5073062;28;20036;-66
2024/01/12 07:40:12;;;;;;;5.82;1.67;;;;;;;;;;5070307;28;19923;-67
2024/01/12 07:42:38;;;;;;;6.25;1.48;;;;;;;;;;5083581;28;20666;-67
2024/01/12 07:45:04;;;;;;;5.70;1.58;;;;;;;;;;5071525;28;20143;-66
2024/01/12 07:47:29;;;;;;;15.93;2.78;;;;;;;;;;5077240;28;20488;-67
2024/01/12 07:49:55;;;;;;;4.88;1.33;;;;;;;;;;5071106;28;20035;-67
2024/01/12 07:52:20;;;;;;;6.85;1.98;;;;;;;;;;5064126;28;20059;-67
2024/01/12 07:54:45;;;;;;;6.38;1.67;;;;;;;;;;5076748;28;20044;-69
2024/01/12 07:57:11;;;;;;;10.18;1.58;;;;;;;;;;5079715;28;20048;-69
2024/01/12 07:59:36;;;;;;;10.70;1.48;;;;;;;;;;5080043;28;20037;-70
2024/01/12 08:02:02;;;;;;;6.78;1.95;;;;;;;;;;5069181;28;20037;-68
2024/01/12 08:04:27;;;;;;;6.20;1.23;;;;;;;;;;5072322;28;20039;-67
2024/01/12 08:06:53;;;;;;;6.90;1.95;;;;;;;;;;5070436;28;20036;-69
2024/01/12 08:09:18;;;;;;;13.35;1.75;;;;;;;;;;5089002;28;20032;-68
2024/01/12 08:11:43;;;;;;;10.00;1.70;;;;;;;;;;5082661;28;20383;-68
2024/01/12 08:14:09;;;;;;;2.88;1.60;;;;;;;;;;5083941;28;20044;-66
2024/01/12 08:16:34;;;;;;;11.30;1.85;;;;;;;;;;5069460;28;20510;-66
2024/01/12 08:19:00;;;;;;;6.28;1.88;;;;;;;;;;5075761;28;20039;-66
2024/01/12 08:21:25;;;;;;;8.25;1.58;;;;;;;;;;5075568;28;20043;-67
2024/01/12 08:23:51;;;;;;;14.85;2.22;;;;;;;;;;5080962;28;20115;-66
2024/01/12 08:26:19;;;;;;;10.70;2.20;;;;;;;;;;5070049;28;20041;-66
2024/01/12 08:28:45;;;;;;;8.10;2.35;;;;;;;;;;5053806;28;20040;-67
2024/01/12 08:31:10;;;;;;;7.40;1.45;;;;;;;;;;5077147;28;20123;-66
2024/01/12 08:33:37;;;;;;;9.63;1.77;;;;;;;;;;5062264;28;20020;-67
2024/01/12 08:36:03;;;;;;;6.40;1.42;;;;;;;;;;5075832;28;20070;-65
2024/01/12 08:38:28;;;;;;;8.05;1.70;;;;;;;;;;5075481;28;20119;-66
2024/01/12 08:40:55;;;;;;;3.80;1.40;;;;;;;;;;5072422;28;20119;-67
2024/01/12 08:43:20;;;;;;;6.07;1.60;;;;;;;;;;5079491;28;20189;-66
2024/01/12 08:45:46;;;;;;;2.95;1.52;;;;;;;;;;5071355;28;20430;-67
2024/01/12 08:48:11;;;;;;;10.25;1.80;;;;;;;;;;5058842;28;20024;-67
2024/01/12 08:50:37;;;;;;;4.70;2.20;;;;;;;;;;5082177;28;20040;-67
2024/01/12 08:53:03;;;;;;;11.02;1.98;;;;;;;;;;5077424;28;20035;-67
2024/01/12 08:55:28;;;;;;;4.10;1.40;;;;;;;;;;5070678;28;20645;-67
2024/01/12 08:57:54;;;;;;;6.25;1.63;;;;;;;;;;5065156;28;20132;-70
2024/01/12 09:00:19;;;;;;;6.68;1.58;;;;;;;;;;5072128;28;20193;-69
2024/01/12 09:02:44;;;;;;;8.73;1.45;;;;;;;;;;5079596;28;20360;-69
2024/01/12 09:05:11;;;;;;;6.55;1.88;;;;;;;;;;5079633;28;20593;-66
2024/01/12 09:07:36;;;;;;;10.68;1.98;;;;;;;;;;5083532;28;20493;-69
2024/01/12 09:10:02;;;;;;;4.20;1.67;;;;;;;;;;5074303;28;20044;-66
2024/01/12 09:12:28;;;;;;;4.95;1.55;;;;;;;;;;5077437;28;20044;-70
2024/01/12 09:14:53;;;;;;;6.30;1.52;;;;;;;;;;5085045;28;20043;-67
2024/01/12 09:17:19;;;;;;;7.70;1.67;;;;;;;;;;5078873;28;20024;-68
2024/01/12 09:19:44;;;;;;;10.05;1.80;;;;;;;;;;5044380;28;20465;-69
2024/01/12 09:22:11;;;;;;;12.73;2.25;;;;;;;;;;5074380;28;20082;-68
2024/01/12 09:24:36;;;;;;;3.50;1.35;;;;;;;;;;5076231;28;20033;-69
2024/01/12 09:27:02;;;;;;;5.03;1.88;;;;;;;;;;5085585;28;20499;-69
2024/01/12 09:29:27;;;;;;;9.10;1.80;;;;;;;;;;5081002;28;20463;-68
2024/01/12 09:31:52;;;;;;;3.53;1.50;;;;;;;;;;5073282;28;20032;-68
2024/01/12 09:34:18;;;;;;;6.50;1.90;;;;;;;;;;5077610;28;20647;-69
2024/01/12 09:36:43;;;;;;;9.35;1.90;;;;;;;;;;5086245;28;20101;-68
2024/01/12 09:39:14;;;;;;;8.48;2.15;;;;;;;;;;5074601;28;20039;-69
2024/01/12 09:41:47;;;;;;;7.82;1.88;;;;;;;;;;5075110;28;20055;-67
2024/01/12 09:44:14;;;;;;;6.30;1.77;;;;;;;;;;5071392;28;20868;-68
2024/01/12 09:46:52;;;;;;;3.70;1.25;;;;;;;;;;5072892;28;20032;-69
2024/01/12 09:49:18;;;;;;;1.52;0.80;;;;;;;;;;5073435;28;20083;-68
2024/01/12 09:51:43;;;;;;;4.28;1.52;;;;;;;;;;5053656;28;20028;-68
2024/01/12 09:54:08;;;;;;;6.43;2.50;;;;;;;;;;5073345;28;20044;-68
2024/01/12 09:56:34;;;;;;;7.03;2.03;;;;;;;;;;5074669;28;20120;-68
2024/01/12 09:59:00;;;;;;;4.65;1.50;;;;;;;;;;5073244;28;20036;-69
2024/01/12 10:01:26;;;;;;;10.75;2.40;;;;;;;;;;5055100;28;21375;-68
2024/01/12 10:03:51;;;;;;;5.65;2.47;;;;;;;;;;5080916;28;20047;-69
2024/01/12 10:06:17;;;;;;;10.00;2.40;;;;;;;;;;5062376;28;20036;-68
2024/01/12 10:08:42;;;;;;;8.27;2.63;;;;;;;;;;5050266;28;20037;-68
2024/01/12 10:11:08;;;;;;;6.13;2.00;;;;;;;;;;5058236;28;20071;-69
2024/01/12 10:13:33;;;;;;;7.53;2.00;;;;;;;;;;5070738;28;20068;-68
2024/01/12 10:16:01;;;;;;;5.45;1.60;;;;;;;;;;5075436;28;20048;-67
2024/01/12 10:18:26;;;;;;;4.88;1.58;;;;;;;;;;5078503;28;20029;-67
2024/01/12 10:20:51;;;;;;;15.43;2.80;;;;;;;;;;5071022;28;20418;-68
2024/01/12 10:23:20;;;;;;;7.50;2.20;;;;;;;;;;5073940;28;20488;-69
2024/01/12 10:25:56;;;;;;;3.50;1.70;;;;;;;;;;5071631;28;20028;-66
2024/01/12 10:28:22;;;;;;;13.13;2.10;;;;;;;;;;5072512;28;20123;-67
2024/01/12 10:30:48;;;;;;;7.82;1.75;;;;;;;;;;5075561;28;20143;-68
2024/01/12 10:33:13;;;;;;;8.18;2.22;;;;;;;;;;5077197;28;20039;-67
2024/01/12 10:35:39;;;;;;;9.25;2.15;;;;;;;;;;5056717;28;20040;-67
2024/01/12 10:38:06;;;;;;;9.23;2.50;;;;;;;;;;5086287;28;20028;-67
2024/01/12 10:40:31;;;;;;;13.20;2.28;;;;;;;;;;5078308;28;20039;-67
2024/01/12 10:42:59;;;;;;;10.07;2.15;;;;;;;;;;5065618;28;20044;-68
2024/01/12 10:45:25;;;;;;;9.60;2.53;;;;;;;;;;5058584;28;20059;-68
2024/01/12 10:48:03;;;;;;;6.93;2.50;;;;;;;;;;5062245;28;20064;-68
2024/01/12 10:50:38;;;;;;;9.93;2.70;;;;;;;;;;5069907;28;20652;-67
2024/01/12 10:53:12;;;;;;;8.18;2.83;;;;;;;;;;5059178;28;20056;-68
2024/01/12 10:55:41;;;;;;;4.97;1.88;;;;;;;;;;5070855;28;20434;-68
2024/01/12 10:58:07;;;;;;;6.00;2.55;;;;;;;;;;5070896;28;20171;-67
2024/01/12 11:00:32;;;;;;;7.18;2.60;;;;;;;;;;5074112;28;20694;-69
2024/01/12 11:03:00;;;;;;;8.95;3.33;;;;;;;;;;5082727;28;20036;-67
2024/01/12 11:05:26;;;;;;;9.45;2.97;;;;;;;;;;5071267;28;20475;-68
2024/01/12 11:07:54;;;;;;;7.07;3.42;;;;;;;;;;5080142;28;20131;-68
2024/01/12 11:10:20;;;;;;;15.43;3.97;;;;;;;;;;5061103;28;20392;-68
2024/01/12 11:12:47;;;;;;;6.00;3.75;;;;;;;;;;5048621;28;20032;-67
2024/01/12 11:15:14;;;;;;;11.43;4.13;;;;;;;;;;5054860;28;20055;-68
2024/01/12 11:17:40;;;;;;;4.97;2.10;;;;;;;;;;5066738;28;20149;-68
2024/01/12 11:20:11;;;;;;;8.82;3.25;;;;;;;;;;5052649;28;20123;-67
2024/01/12 11:22:41;;;;;;;9.77;3.20;;;;;;;;;;5050688;28;20044;-68
2024/01/12 11:25:08;;;;;;;5.22;3.25;;;;;;;;;;5050929;28;20491;-67
2024/01/12 11:27:35;;;;;;;8.07;2.55;;;;;;;;;;5051462;28;20032;-68
2024/01/12 11:30:01;;;;;;;8.30;2.22;;;;;;;;;;5069503;28;20116;-67
2024/01/12 11:32:30;;;;;;;3.80;1.70;;;;;;;;;;5068519;28;20070;-67
2024/01/12 11:35:18;;;;;;;5.15;1.90;;;;;;;;;;5069486;28;20036;-67
2024/01/12 11:38:00;;;;;;;3.55;1.73;;;;;;;;;;5051909;28;20036;-67
2024/01/12 11:40:27;;;;;;;6.82;1.95;;;;;;;;;;5056064;28;20434;-68
2024/01/12 11:42:52;;;;;;;8.27;3.20;;;;;;;;;;5076910;28;20052;-68
2024/01/12 11:45:18;;;;;;;4.15;1.63;;;;;;;;;;5068465;28;20040;-69
2024/01/12 11:47:44;;;;;;;2.83;1.52;;;;;;;;;;5058838;28;20117;-69
2024/01/12 11:50:12;;;;;;;7.40;2.03;;;;;;;;;;5075845;28;20036;-67
2024/01/12 11:52:38;;;;;;;3.90;1.83;;;;;;;;;;5057926;28;20036;-68
2024/01/12 11:55:08;;;;;;;3.42;1.20;;;;;;;;;;5048475;28;20090;-68
2024/01/12 11:57:37;;;;;;;3.83;1.70;;;;;;;;;;5066919;28;20117;-67
2024/01/12 12:00:06;;;;;;;9.18;2.45;;;;;;;;;;5047060;28;20102;-67
2024/01/12 12:02:35;;;;;;;8.55;2.40;;;;;;;;;;5081884;28;20086;-67
2024/01/12 12:05:03;;;;;;;3.22;1.60;;;;;;;;;;5060679;28;20032;-67
2024/01/12 12:07:28;;;;;;;4.07;2.08;;;;;;;;;;5071032;28;20046;-69
2024/01/12 12:09:54;;;;;;;9.77;2.33;;;;;;;;;;5065037;28;20028;-67
2024/01/12 12:12:22;;;;;;;6.50;2.15;;;;;;;;;;5066445;28;20118;-67
2024/01/12 12:15:01;;;;;;;6.85;1.67;;;;;;;;;;5071056;28;20044;-68
2024/01/12 12:17:28;;;;;;;6.97;2.75;;;;;;;;;;5084273;28;20044;-67
2024/01/12 12:19:53;;;;;;;3.72;2.00;;;;;;;;;;5055783;28;20094;-67
2024/01/12 12:22:19;;;;;;;6.43;2.40;;;;;;;;;;5049635;28;20037;-68
2024/01/12 12:24:45;;;;;;;3.35;2.05;;;;;;;;;;5058536;28;20127;-68
2024/01/12 12:27:10;;;;;;;7.68;2.30;;;;;;;;;;5075604;28;20112;-67
2024/01/12 12:29:36;;;;;;;5.57;2.70;;;;;;;;;;5056702;28;20039;-67
2024/01/12 12:32:01;;;;;;;7.28;2.22;;;;;;;;;;5079657;28;20562;-67
2024/01/12 12:34:32;;;;;;;6.20;2.30;;;;;;;;;;5067267;28;20487;-68
2024/01/12 12:36:58;;;;;;;6.35;2.63;;;;;;;;;;5083347;28;20032;-67
2024/01/12 12:39:23;;;;;;;2.50;1.42;;;;;;;;;;5088907;28;20042;-68
2024/01/12 12:41:48;;;;;;;6.00;2.90;;;;;;;;;;5083459;28;20115;-67
2024/01/12 12:44:14;;;;;;;6.95;2.70;;;;;;;;;;5085164;28;20093;-67
2024/01/12 12:46:39;;;;;;;7.40;2.70;;;;;;;;;;5083205;28;20455;-67
2024/01/12 12:49:07;;;;;;;6.53;2.10;;;;;;;;;;5071157;28;20044;-67
2024/01/12 12:51:32;;;;;;;3.95;1.58;;;;;;;;;;5101562;28;20028;-67
2024/01/12 12:53:57;;;;;;;8.63;2.55;;;;;;;;;;5073013;28;20039;-67
2024/01/12 12:56:22;;;;;;;2.47;1.10;;;;;;;;;;5075412;28;20051;-67
2024/01/12 12:58:48;;;;;;;7.03;2.00;;;;;;;;;;5097780;28;20032;-68
2024/01/12 13:01:14;;;;;;;4.65;2.38;;;;;;;;;;5079037;28;20086;-67
2024/01/12 13:03:40;;;;;;;8.82;2.35;;;;;;;;;;5082185;28;20093;-67
2024/01/12 13:06:05;;;;;;;8.80;2.30;;;;;;;;;;5084416;28;20023;-67
2024/01/12 13:08:30;;;;;;;4.50;2.30;;;;;;;;;;5082370;28;20511;-67
2024/01/12 13:10:56;;;;;;;3.28;2.20;;;;;;;;;;5071347;28;20272;-68
2024/01/12 13:13:21;;;;;;;9.32;2.53;;;;;;;;;;5073816;28;20036;-68
2024/01/12 13:15:47;;;;;;;4.88;1.65;;;;;;;;;;5079371;28;20468;-67
2024/01/12 13:18:12;;;;;;;4.80;2.08;;;;;;;;;;5076561;28;20044;-69
2024/01/12 13:20:37;;;;;;;5.28;2.30;;;;;;;;;;5076262;28;20035;-68
2024/01/12 13:23:03;;;;;;;7.00;2.85;;;;;;;;;;5083279;28;20047;-68
2024/01/12 13:25:30;;;;;;;6.22;2.40;;;;;;;;;;5073215;28;20052;-69
2024/01/12 13:27:55;;;;;;;5.15;1.92;;;;;;;;;;5076335;28;20089;-67
2024/01/12 13:30:20;;;;;;;7.70;3.10;;;;;;;;;;5073861;28;20115;-67
2024/01/12 13:32:46;;;;;;;5.70;3.45;;;;;;;;;;5072850;28;20105;-67
2024/01/12 13:35:11;;;;;;;9.27;4.13;;;;;;;;;;5072858;28;20125;-67
2024/01/12 13:37:36;;;;;;;6.88;3.78;;;;;;;;;;5072899;28;20044;-67
2024/01/12 13:40:02;;;;;;;9.73;3.80;;;;;;;;;;5074171;28;20032;-69
2024/01/12 13:42:28;;;;;;;6.32;3.22;;;;;;;;;;5072903;28;20518;-68
2024/01/12 13:44:53;;;;;;;9.38;2.83;;;;;;;;;;5074555;28;20037;-68
2024/01/12 13:47:19;;;;;;;7.78;3.35;;;;;;;;;;5073214;28;20075;-68
2024/01/12 13:49:45;;;;;;;10.48;3.42;;;;;;;;;;5069866;28;20628;-67
2024/01/12 13:52:11;;;;;;;7.30;2.90;;;;;;;;;;5072271;28;20029;-68
2024/01/12 13:54:37;;;;;;;9.35;3.03;;;;;;;;;;5058130;28;20040;-67
2024/01/12 13:57:03;;;;;;;7.97;3.33;;;;;;;;;;5074854;28;20084;-68
2024/01/12 13:59:28;;;;;;;5.10;2.75;;;;;;;;;;5075948;28;20072;-67
2024/01/12 14:01:54;;;;;;;14.77;3.40;;;;;;;;;;5054810;28;20094;-69
2024/01/12 14:04:20;;;;;;;5.20;2.25;;;;;;;;;;5072285;28;20032;-68
2024/01/12 14:06:46;;;;;;;6.97;3.37;;;;;;;;;;5060079;28;20427;-68
2024/01/12 14:09:13;;;;;;;2.95;1.63;;;;;;;;;;5070939;28;20044;-67
2024/01/12 14:11:38;;;;;;;9.88;2.92;;;;;;;;;;5075750;28;20561;-67
2024/01/12 14:14:04;;;;;;;9.37;2.93;;;;;;;;;;5084440;28;20045;-67
2024/01/12 14:16:30;;;;;;;6.22;3.50;;;;;;;;;;5082611;28;20036;-67
2024/01/12 14:18:55;;;;;;;8.00;3.40;;;;;;;;;;5083804;28;20028;-69
2024/01/12 14:21:20;;;;;;;10.05;3.40;;;;;;;;;;5074470;28;20420;-68
2024/01/12 14:23:46;;;;;;;5.35;3.30;;;;;;;;;;5081438;28;20045;-67
2024/01/12 14:26:11;;;;;;;9.88;4.07;;;;;;;;;;5074089;28;20028;-67
2024/01/12 14:28:36;;;;;;;8.93;3.70;;;;;;;;;;5056620;28;20043;-69
2024/01/12 14:31:03;;;;;;;6.93;2.40;;;;;;;;;;5052965;28;20119;-67
2024/01/12 14:33:33;;;;;;;9.63;4.00;;;;;;;;;;5070671;28;20043;-67